Time;durP1;ratioP1;P1;durP2;ratioP2;P2;SDS_P1;SDS_P2;PMS_P1;PMS_P2;Temp;Humidity;BMP_temperature;BMP_pressure;BME280_temperature;BME280_humidity;BME280_pressure;Samples;Min_cycle;Max_cycle;Signal;HPM_P1;HPM_P2
2023/12/08 00:01:07;;;;;;;19.33;14.88;;;;;;;4.13;69.18;100658.41;5067068;28;20036;-66
2023/12/08 00:03:33;;;;;;;19.95;14.43;;;;;;;4.14;69.78;100660.09;5082331;28;20042;-65
2023/12/08 00:06:00;;;;;;;17.35;13.88;;;;;;;4.11;69.56;100655.03;5078555;28;20039;-65
2023/12/08 00:08:26;;;;;;;21.25;15.23;;;;;;;4.11;69.22;100655.03;5081412;28;20657;-66
2023/12/08 00:10:51;;;;;;;18.35;14.63;;;;;;;4.10;69.84;100647.84;5083214;28;20032;-65
2023/12/08 00:13:16;;;;;;;21.85;15.50;;;;;;;4.10;69.54;100647.00;5085885;28;20028;-65
2023/12/08 00:15:42;;;;;;;22.52;15.60;;;;;;;4.09;69.56;100640.69;5072857;28;20025;-64
2023/12/08 00:18:07;;;;;;;20.50;14.90;;;;;;;4.09;69.50;100639.84;5087255;28;20207;-65
2023/12/08 00:20:37;;;;;;;19.73;14.65;;;;;;;4.08;69.34;100633.47;5080291;28;20107;-65
2023/12/08 00:23:03;;;;;;;20.50;15.20;;;;;;;4.09;69.88;100640.69;5069877;28;20044;-65
2023/12/08 00:25:28;;;;;;;18.58;14.40;;;;;;;4.12;69.96;100645.72;5080437;28;20028;-65
2023/12/08 00:27:54;;;;;;;21.23;15.15;;;;;;;4.14;69.77;100645.53;5089130;28;20107;-65
2023/12/08 00:30:20;;;;;;;24.60;16.15;;;;;;;4.14;69.94;100640.03;5086538;28;20028;-65
2023/12/08 00:32:46;;;;;;;19.77;15.10;;;;;;;4.11;70.17;100635.78;5075664;28;20642;-64
2023/12/08 00:35:14;;;;;;;22.63;15.95;;;;;;;4.14;69.90;100632.63;5089721;28;20036;-65
2023/12/08 00:37:39;;;;;;;23.20;15.05;;;;;;;4.12;70.07;100629.22;5093969;28;20020;-65
2023/12/08 00:40:05;;;;;;;20.63;14.73;;;;;;;4.11;69.97;100619.31;5089308;28;20027;-65
2023/12/08 00:42:31;;;;;;;18.17;14.85;;;;;;;4.09;69.71;100621.44;5078592;28;20765;-65
2023/12/08 00:44:56;;;;;;;20.38;14.93;;;;;;;4.14;70.06;100620.78;5082411;28;20434;-65
2023/12/08 00:47:21;;;;;;;19.67;15.15;;;;;;;4.13;70.14;100614.47;5094877;28;20024;-65
2023/12/08 00:49:47;;;;;;;18.65;14.40;;;;;;;4.14;70.05;100613.41;5091739;28;20086;-65
2023/12/08 00:52:12;;;;;;;21.73;15.95;;;;;;;4.16;70.27;100618.66;5082716;28;20119;-65
2023/12/08 00:54:37;;;;;;;21.88;15.55;;;;;;;4.18;70.33;100625.63;5091732;28;20498;-65
2023/12/08 00:57:03;;;;;;;20.35;14.93;;;;;;;4.17;70.10;100610.22;5092642;28;20109;-65
2023/12/08 00:59:28;;;;;;;20.58;15.20;;;;;;;4.19;69.91;100604.50;5094398;28;20110;-65
2023/12/08 01:01:54;;;;;;;20.55;14.85;;;;;;;4.18;69.98;100605.56;5090830;28;20027;-65
2023/12/08 01:04:22;;;;;;;20.23;14.95;;;;;;;4.17;69.43;100612.97;5081697;28;20414;-65
2023/12/08 01:06:47;;;;;;;20.52;15.05;;;;;;;4.19;69.60;100605.34;5083646;28;20039;-65
2023/12/08 01:09:13;;;;;;;17.83;14.02;;;;;;;4.21;69.49;100598.81;5085376;28;20035;-68
2023/12/08 01:11:38;;;;;;;20.65;14.85;;;;;;;4.19;69.63;100594.34;5080040;28;20039;-66
2023/12/08 01:14:04;;;;;;;22.45;16.20;;;;;;;4.18;69.59;100587.19;5090726;28;20040;-66
2023/12/08 01:16:29;;;;;;;18.95;14.80;;;;;;;4.21;69.49;100593.31;5089215;28;20020;-65
2023/12/08 01:18:57;;;;;;;21.00;15.68;;;;;;;4.19;69.49;100591.59;5093324;28;20046;-65
2023/12/08 01:21:22;;;;;;;20.17;15.18;;;;;;;4.22;69.66;100589.50;5084688;28;20028;-65
2023/12/08 01:23:54;;;;;;;21.08;15.88;;;;;;;4.21;69.49;100585.91;5080957;28;20035;-66
2023/12/08 01:26:19;;;;;;;20.38;15.52;;;;;;;4.19;69.84;100580.59;5082738;28;20040;-65
2023/12/08 01:28:44;;;;;;;20.15;15.00;;;;;;;4.19;70.11;100582.53;5073673;28;20059;-64
2023/12/08 01:31:10;;;;;;;19.95;15.57;;;;;;;4.17;70.05;100580.00;5078259;28;20395;-64
2023/12/08 01:33:35;;;;;;;20.10;15.48;;;;;;;4.17;69.90;100576.41;5092713;28;20036;-65
2023/12/08 01:36:00;;;;;;;20.40;15.48;;;;;;;4.18;69.90;100575.34;5088545;28;20035;-65
2023/12/08 01:38:25;;;;;;;20.73;14.77;;;;;;;4.19;69.79;100569.63;5093574;28;20035;-65
2023/12/08 01:40:51;;;;;;;19.02;15.35;;;;;;;4.15;70.08;100570.28;5092182;28;20031;-65
2023/12/08 01:43:17;;;;;;;20.58;14.40;;;;;;;4.10;70.12;100564.59;5090774;28;20081;-65
2023/12/08 01:45:42;;;;;;;18.70;15.00;;;;;;;4.12;70.59;100566.06;5091723;28;20470;-64
2023/12/08 01:48:08;;;;;;;20.13;15.75;;;;;;;4.12;70.93;100556.97;5078239;28;20032;-65
2023/12/08 01:50:34;;;;;;;18.05;14.30;;;;;;;4.11;70.78;100553.41;5073195;28;20039;-65
2023/12/08 01:53:00;;;;;;;18.60;14.68;;;;;;;4.13;71.11;100555.94;5088794;28;20032;-65
2023/12/08 01:55:26;;;;;;;19.45;15.30;;;;;;;4.13;70.86;100561.44;5086164;28;20073;-65
2023/12/08 01:57:52;;;;;;;19.52;14.55;;;;;;;4.14;71.29;100550.22;5077749;28;20055;-65
2023/12/08 02:00:18;;;;;;;17.38;14.07;;;;;;;4.13;71.95;100551.28;5072496;28;20052;-65
2023/12/08 02:02:46;;;;;;;18.67;14.13;;;;;;;4.19;71.63;100552.31;5080987;28;20155;-65
2023/12/08 02:05:15;;;;;;;18.15;14.23;;;;;;;4.19;71.85;100549.56;5077905;28;20071;-65
2023/12/08 02:07:40;;;;;;;19.48;15.15;;;;;;;4.16;71.79;100552.72;5076629;28;20039;-65
2023/12/08 02:10:06;;;;;;;16.85;14.23;;;;;;;4.19;71.70;100546.81;5072453;28;20033;-65
2023/12/08 02:12:31;;;;;;;19.00;15.18;;;;;;;4.16;71.78;100537.09;5075279;28;20434;-65
2023/12/08 02:14:58;;;;;;;19.60;14.70;;;;;;;4.17;72.50;100532.47;5085531;28;20028;-65
2023/12/08 02:17:28;;;;;;;19.08;15.07;;;;;;;4.18;72.83;100524.00;5079438;28;20055;-65
2023/12/08 02:19:54;;;;;;;19.52;13.80;;;;;;;4.18;72.97;100526.75;5078657;28;20012;-65
2023/12/08 02:22:23;;;;;;;16.75;14.20;;;;;;;4.18;72.70;100514.91;5086093;28;20122;-65
2023/12/08 02:24:48;;;;;;;18.33;14.48;;;;;;;4.18;72.87;100502.03;5090640;28;20113;-65
2023/12/08 02:27:14;;;;;;;18.75;14.27;;;;;;;4.17;72.99;100499.50;5092387;28;20040;-65
2023/12/08 02:29:40;;;;;;;20.42;14.75;;;;;;;4.08;73.52;100495.31;5090802;28;20456;-64
2023/12/08 02:32:14;;;;;;;19.55;13.82;;;;;;;4.09;74.03;100508.00;5088955;28;20058;-65
2023/12/08 02:34:41;;;;;;;17.60;14.90;;;;;;;4.09;74.54;100508.00;5076410;28;20067;-65
2023/12/08 02:37:08;;;;;;;18.73;14.75;;;;;;;4.12;74.22;100518.53;5076417;28;20032;-65
2023/12/08 02:39:36;;;;;;;18.25;15.07;;;;;;;4.12;74.30;100529.50;5092738;28;20028;-65
2023/12/08 02:42:02;;;;;;;16.80;14.55;;;;;;;4.12;74.47;100513.88;5091591;28;20028;-65
2023/12/08 02:44:27;;;;;;;17.95;14.75;;;;;;;4.10;74.57;100504.19;5072941;28;20040;-65
2023/12/08 02:46:52;;;;;;;18.63;14.57;;;;;;;4.10;74.70;100510.53;5076252;28;20039;-64
2023/12/08 02:49:18;;;;;;;20.77;14.88;;;;;;;4.12;74.72;100504.78;5091075;28;20026;-64
2023/12/08 02:51:43;;;;;;;20.05;14.75;;;;;;;4.14;74.73;100503.53;5080538;28;20028;-65
2023/12/08 02:54:08;;;;;;;19.98;15.20;;;;;;;4.09;74.62;100497.84;5091567;28;20482;-64
2023/12/08 02:56:34;;;;;;;19.02;14.75;;;;;;;4.09;75.07;100503.34;5090575;28;20047;-64
2023/12/08 02:58:59;;;;;;;18.30;14.88;;;;;;;4.08;75.22;100512.63;5077839;28;20024;-64
2023/12/08 03:01:24;;;;;;;19.85;15.45;;;;;;;4.08;75.26;100517.28;5084131;28;20036;-64
2023/12/08 03:03:49;;;;;;;19.50;14.50;;;;;;;4.08;75.47;100518.13;5079008;28;20090;-65
2023/12/08 03:06:15;;;;;;;19.35;14.52;;;;;;;4.10;75.77;100512.44;5073696;28;20042;-65
2023/12/08 03:08:40;;;;;;;18.30;15.20;;;;;;;4.09;75.76;100508.84;5081110;28;20032;-64
2023/12/08 03:11:05;;;;;;;19.65;14.75;;;;;;;4.06;75.92;100520.25;5075256;28;20782;-65
2023/12/08 03:13:31;;;;;;;18.45;15.48;;;;;;;4.11;76.07;100525.94;5082559;28;20028;-65
2023/12/08 03:15:56;;;;;;;17.42;14.93;;;;;;;4.12;75.99;100519.38;5071896;28;20029;-65
2023/12/08 03:18:21;;;;;;;20.15;14.77;;;;;;;4.14;75.71;100520.00;5075216;28;20032;-65
2023/12/08 03:20:47;;;;;;;18.30;14.45;;;;;;;4.13;75.66;100510.09;5074572;28;20035;-65
2023/12/08 03:23:15;;;;;;;21.00;15.98;;;;;;;4.15;76.28;100499.72;5079378;28;20116;-65
2023/12/08 03:25:41;;;;;;;20.40;15.32;;;;;;;4.17;76.25;100505.84;5090676;28;20046;-65
2023/12/08 03:28:06;;;;;;;20.10;14.98;;;;;;;4.15;76.23;100502.44;5081584;28;20033;-65
2023/12/08 03:30:34;;;;;;;20.98;15.68;;;;;;;4.13;76.62;100503.75;5085483;28;20060;-64
2023/12/08 03:32:59;;;;;;;18.75;15.10;;;;;;;4.12;76.68;100505.63;5088490;28;20184;-64
2023/12/08 03:35:24;;;;;;;19.83;15.95;;;;;;;4.13;76.59;100506.50;5071470;28;20024;-65
2023/12/08 03:37:49;;;;;;;18.50;14.52;;;;;;;4.15;76.51;100509.84;5087384;28;21464;-65
2023/12/08 03:40:15;;;;;;;21.13;16.17;;;;;;;4.15;76.57;100501.63;5073119;28;20027;-65
2023/12/08 03:42:40;;;;;;;21.02;16.35;;;;;;;4.17;76.74;100508.59;5072495;28;20052;-64
2023/12/08 03:45:06;;;;;;;19.65;15.80;;;;;;;4.16;76.66;100506.03;5085875;28;20115;-65
2023/12/08 03:47:31;;;;;;;18.33;15.40;;;;;;;4.16;76.81;100495.06;5079552;28;20031;-65
2023/12/08 03:49:56;;;;;;;19.70;15.88;;;;;;;4.18;76.70;100501.19;5090148;28;20085;-65
2023/12/08 03:52:22;;;;;;;20.48;15.38;;;;;;;4.17;76.93;100494.00;5089824;28;20677;-65
2023/12/08 03:54:47;;;;;;;19.92;16.00;;;;;;;4.16;76.90;100493.13;5086540;28;20495;-64
2023/12/08 03:57:12;;;;;;;20.20;16.27;;;;;;;4.13;76.95;100493.59;5073454;28;20032;-64
2023/12/08 03:59:38;;;;;;;18.88;15.88;;;;;;;4.13;77.09;100485.38;5078997;28;20024;-65
2023/12/08 04:02:03;;;;;;;24.33;16.00;;;;;;;4.12;77.31;100482.81;5090793;28;20063;-64
2023/12/08 04:04:29;;;;;;;21.05;16.15;;;;;;;4.14;77.40;100486.19;5086319;28;20028;-65
2023/12/08 04:06:55;;;;;;;20.10;15.98;;;;;;;4.14;77.39;100473.31;5085745;28;20021;-64
2023/12/08 04:09:21;;;;;;;21.05;15.82;;;;;;;4.15;77.29;100466.75;5087997;28;20028;-64
2023/12/08 04:11:46;;;;;;;21.25;16.27;;;;;;;4.17;77.33;100466.53;5075353;28;20028;-65
2023/12/08 04:14:14;;;;;;;19.70;16.20;;;;;;;4.15;77.21;100464.00;5075359;28;20357;-64
2023/12/08 04:16:40;;;;;;;20.10;16.02;;;;;;;4.14;77.27;100456.81;5080380;28;20047;-64
2023/12/08 04:19:05;;;;;;;18.70;15.70;;;;;;;4.16;77.28;100465.66;5092309;28;20029;-65
2023/12/08 04:21:31;;;;;;;19.35;15.85;;;;;;;4.14;77.47;100462.31;5087097;28;20066;-65
2023/12/08 04:23:56;;;;;;;20.63;15.85;;;;;;;4.16;77.42;100473.06;5088485;28;20772;-65
2023/12/08 04:26:24;;;;;;;20.65;16.00;;;;;;;4.19;77.69;100487.22;5092673;28;20502;-65
2023/12/08 04:28:52;;;;;;;20.02;15.85;;;;;;;4.14;77.44;100473.31;5093742;28;20024;-65
2023/12/08 04:31:17;;;;;;;19.38;15.98;;;;;;;4.15;77.37;100477.72;5076644;28;20043;-65
2023/12/08 04:33:43;;;;;;;19.75;15.93;;;;;;;4.15;77.31;100482.38;5074334;28;20053;-64
2023/12/08 04:36:08;;;;;;;21.73;15.68;;;;;;;4.14;77.37;100489.78;5075755;28;20037;-64
2023/12/08 04:38:34;;;;;;;20.52;15.75;;;;;;;4.12;77.59;100472.66;5091776;28;20039;-65
2023/12/08 04:40:59;;;;;;;17.80;14.88;;;;;;;4.13;77.86;100470.78;5089226;28;20054;-64
2023/12/08 04:43:24;;;;;;;19.17;14.98;;;;;;;4.15;78.00;100455.75;5079394;28;20036;-65
2023/12/08 04:45:50;;;;;;;21.30;16.15;;;;;;;4.14;77.62;100462.31;5080392;28;20064;-65
2023/12/08 04:48:15;;;;;;;18.63;14.80;;;;;;;4.14;78.09;100470.56;5074634;28;20099;-64
2023/12/08 04:50:43;;;;;;;19.05;15.52;;;;;;;4.13;78.21;100484.53;5079963;28;20433;-65
2023/12/08 04:53:08;;;;;;;20.02;15.60;;;;;;;4.09;78.27;100475.88;5084558;28;20545;-65
2023/12/08 04:55:35;;;;;;;20.35;15.43;;;;;;;4.11;78.14;100479.22;5080953;28;20043;-65
2023/12/08 04:58:00;;;;;;;17.38;14.80;;;;;;;4.10;78.36;100465.72;5094453;28;20093;-65
2023/12/08 05:00:26;;;;;;;20.30;15.45;;;;;;;4.11;78.30;100468.25;5087411;28;20032;-65
2023/12/08 05:02:51;;;;;;;19.48;15.43;;;;;;;4.16;78.46;100467.59;5091775;28;20032;-65
2023/12/08 05:05:17;;;;;;;17.75;14.60;;;;;;;4.18;78.21;100469.06;5081415;28;20674;-65
2023/12/08 05:07:42;;;;;;;22.27;15.63;;;;;;;4.16;78.53;100460.19;5082060;28;20029;-65
2023/12/08 05:10:07;;;;;;;18.65;14.57;;;;;;;4.19;78.49;100458.91;5080585;28;20403;-64
2023/12/08 05:12:33;;;;;;;19.98;15.50;;;;;;;4.20;78.63;100455.09;5078061;28;20032;-65
2023/12/08 05:14:58;;;;;;;19.20;15.00;;;;;;;4.20;78.73;100446.84;5094252;28;20071;-65
2023/12/08 05:17:23;;;;;;;19.20;15.40;;;;;;;4.21;78.83;100451.31;5090897;28;20476;-64
2023/12/08 05:19:48;;;;;;;18.52;15.55;;;;;;;4.20;78.54;100449.59;5083465;28;20555;-67
2023/12/08 05:22:14;;;;;;;22.38;15.32;;;;;;;4.21;78.65;100447.72;5088576;28;20509;-65
2023/12/08 05:24:39;;;;;;;22.55;16.10;;;;;;;4.16;78.51;100434.63;5091227;28;20073;-65
2023/12/08 05:27:05;;;;;;;18.95;15.02;;;;;;;4.13;79.38;100437.84;5078821;28;20089;-65
2023/12/08 05:29:31;;;;;;;20.38;14.80;;;;;;;4.14;78.93;100451.34;5081409;28;20063;-65
2023/12/08 05:31:56;;;;;;;20.30;15.15;;;;;;;4.15;79.39;100453.00;5085717;28;20051;-65
2023/12/08 05:34:21;;;;;;;19.77;14.82;;;;;;;4.14;79.06;100456.81;5086511;28;20578;-65
2023/12/08 05:36:47;;;;;;;17.55;14.50;;;;;;;4.16;79.43;100462.94;5092970;28;20070;-65
2023/12/08 05:39:12;;;;;;;21.58;15.07;;;;;;;4.16;79.60;100465.66;5088184;28;20021;-65
2023/12/08 05:41:37;;;;;;;17.35;13.52;;;;;;;4.13;79.69;100466.13;5083940;28;20481;-65
2023/12/08 05:44:03;;;;;;;18.88;14.40;;;;;;;4.13;79.55;100477.13;5089596;28;20035;-65
2023/12/08 05:46:28;;;;;;;18.95;15.35;;;;;;;4.11;80.06;100472.91;5078903;28;20398;-65
2023/12/08 05:48:56;;;;;;;21.00;15.60;;;;;;;4.12;79.92;100477.31;5093505;28;20035;-65
2023/12/08 05:51:21;;;;;;;18.88;14.75;;;;;;;4.12;80.12;100471.84;5085039;28;20027;-66
2023/12/08 05:53:47;;;;;;;19.25;14.52;;;;;;;4.13;80.43;100481.78;5089192;28;20028;-66
2023/12/08 05:56:15;;;;;;;18.02;14.45;;;;;;;4.13;80.43;100482.63;5090295;28;21886;-66
2023/12/08 05:58:40;;;;;;;19.15;14.57;;;;;;;4.15;80.38;100469.50;5072723;28;20111;-66
2023/12/08 06:01:05;;;;;;;16.23;13.57;;;;;;;4.18;80.32;100470.97;5074221;28;20120;-65
2023/12/08 06:03:31;;;;;;;17.98;14.68;;;;;;;4.18;80.49;100468.22;5085037;28;20439;-64
2023/12/08 06:05:56;;;;;;;18.40;14.50;;;;;;;4.19;80.51;100467.97;5071946;28;20023;-66
2023/12/08 06:08:21;;;;;;;20.05;14.75;;;;;;;4.21;80.96;100462.28;5072515;28;20036;-65
2023/12/08 06:10:47;;;;;;;18.40;13.68;;;;;;;4.23;80.85;100470.31;5073315;28;20111;-65
2023/12/08 06:13:13;;;;;;;18.80;14.88;;;;;;;4.22;81.33;100465.88;5087893;28;20028;-66
2023/12/08 06:15:39;;;;;;;21.58;15.18;;;;;;;4.20;81.40;100466.06;5088087;28;20044;-65
2023/12/08 06:18:07;;;;;;;21.13;16.02;;;;;;;4.23;81.74;100473.03;5077923;28;20468;-66
2023/12/08 06:20:32;;;;;;;20.38;14.85;;;;;;;4.23;81.21;100484.88;5074883;28;20032;-65
2023/12/08 06:22:57;;;;;;;20.92;14.80;;;;;;;4.24;80.98;100481.06;5080146;28;20031;-65
2023/12/08 06:25:23;;;;;;;21.15;15.35;;;;;;;4.25;81.32;100477.25;5074137;28;20035;-65
2023/12/08 06:27:48;;;;;;;22.00;14.98;;;;;;;4.25;81.57;100484.66;5073935;28;20119;-65
2023/12/08 06:30:14;;;;;;;22.35;15.10;;;;;;;4.26;81.73;100476.19;5089105;28;20047;-64
2023/12/08 06:32:45;;;;;;;20.00;15.20;;;;;;;4.27;81.89;100491.59;5076326;28;20028;-64
2023/12/08 06:35:10;;;;;;;22.08;15.73;;;;;;;4.28;81.85;100482.28;5071088;28;20529;-64
2023/12/08 06:37:36;;;;;;;19.15;15.25;;;;;;;4.26;82.04;100489.09;5078474;28;20036;-64
2023/12/08 06:40:01;;;;;;;21.70;15.38;;;;;;;4.27;82.31;100482.53;5091379;28;20080;-64
2023/12/08 06:42:26;;;;;;;21.70;15.38;;;;;;;4.27;82.66;100479.78;5088875;28;20035;-64
2023/12/08 06:44:51;;;;;;;23.80;15.52;;;;;;;4.27;82.44;100488.03;5089634;28;20032;-64
2023/12/08 06:47:17;;;;;;;21.40;15.15;;;;;;;4.28;82.58;100490.53;5090152;28;20024;-65
2023/12/08 06:49:42;;;;;;;20.20;15.55;;;;;;;4.29;82.69;100489.50;5073357;28;20044;-64
2023/12/08 06:52:07;;;;;;;22.27;16.92;;;;;;;4.31;82.67;100492.84;5077868;28;20020;-64
2023/12/08 06:54:33;;;;;;;23.08;16.88;;;;;;;4.34;83.02;100494.31;5083892;28;20036;-65
2023/12/08 06:56:58;;;;;;;21.70;15.32;;;;;;;4.36;82.90;100503.16;5077350;28;20024;-64
2023/12/08 06:59:26;;;;;;;24.45;16.45;;;;;;;4.37;83.06;100502.97;5078650;28;20111;-65
2023/12/08 07:01:54;;;;;;;20.52;15.85;;;;;;;4.35;83.35;100496.84;5088800;28;20400;-64
2023/12/08 07:04:19;;;;;;;23.52;15.88;;;;;;;4.38;83.40;100493.66;5073801;28;20040;-65
2023/12/08 07:06:45;;;;;;;20.80;15.55;;;;;;;4.39;83.43;100492.59;5081605;28;20024;-65
2023/12/08 07:09:11;;;;;;;20.75;15.25;;;;;;;4.41;83.73;100495.13;5082947;28;20384;-65
2023/12/08 07:11:36;;;;;;;23.02;16.05;;;;;;;4.43;83.25;100495.72;5090197;28;20043;-65
2023/12/08 07:14:02;;;;;;;22.02;15.98;;;;;;;4.42;83.54;100491.31;5078619;28;20032;-65
2023/12/08 07:16:29;;;;;;;21.92;16.17;;;;;;;4.42;83.97;100503.13;5088948;28;20048;-66
2023/12/08 07:18:55;;;;;;;21.33;16.33;;;;;;;4.43;83.99;100498.47;5091051;28;20107;-63
2023/12/08 07:21:20;;;;;;;22.60;16.60;;;;;;;4.43;84.11;100501.22;5081295;28;20116;-63
2023/12/08 07:23:45;;;;;;;27.45;17.52;;;;;;;4.43;84.14;100499.31;5073387;28;20048;-64
2023/12/08 07:26:11;;;;;;;22.92;16.00;;;;;;;4.44;84.11;100500.16;5083381;28;20100;-64
2023/12/08 07:28:37;;;;;;;22.70;17.45;;;;;;;4.48;84.06;100501.44;5084137;28;20486;-64
2023/12/08 07:31:03;;;;;;;24.15;17.17;;;;;;;4.48;84.41;100509.69;5083725;28;20028;-64
2023/12/08 07:33:28;;;;;;;23.83;16.50;;;;;;;4.48;84.36;100506.94;5082039;28;20555;-63
2023/12/08 07:35:53;;;;;;;24.23;16.83;;;;;;;4.50;84.39;100514.94;5077705;28;20029;-63
2023/12/08 07:38:19;;;;;;;23.77;16.65;;;;;;;4.50;84.20;100517.69;5075073;28;20036;-64
2023/12/08 07:40:45;;;;;;;24.45;17.00;;;;;;;4.51;84.72;100524.84;5080265;28;20031;-64
2023/12/08 07:43:11;;;;;;;24.92;16.95;;;;;;;4.51;84.47;100522.94;5078492;28;20029;-64
2023/12/08 07:45:36;;;;;;;23.13;16.85;;;;;;;4.54;84.68;100525.25;5083118;28;20069;-63
2023/12/08 07:48:01;;;;;;;24.77;17.50;;;;;;;4.56;84.97;100531.41;5091637;28;20035;-64
2023/12/08 07:50:27;;;;;;;24.60;17.17;;;;;;;4.56;84.95;100525.91;5083885;28;20123;-63
2023/12/08 07:52:55;;;;;;;26.38;17.83;;;;;;;4.58;84.98;100544.91;5082273;28;20061;-64
2023/12/08 07:55:20;;;;;;;25.95;18.15;;;;;;;4.58;85.27;100539.41;5082650;28;20024;-64
2023/12/08 07:57:48;;;;;;;26.80;19.25;;;;;;;4.58;85.36;100540.25;5082346;28;20387;-64
2023/12/08 08:00:14;;;;;;;27.42;17.83;;;;;;;4.59;85.16;100541.09;5077861;28;20033;-63
2023/12/08 08:02:41;;;;;;;27.30;19.05;;;;;;;4.59;85.59;100541.91;5079065;28;20031;-65
2023/12/08 08:05:09;;;;;;;26.15;18.08;;;;;;;4.59;85.68;100539.16;5070489;28;20095;-65
2023/12/08 08:07:34;;;;;;;31.65;18.98;;;;;;;4.59;85.63;100539.16;5071359;28;20060;-64
2023/12/08 08:09:59;;;;;;;32.55;20.40;;;;;;;4.62;86.25;100544.22;5074778;28;20549;-64
2023/12/08 08:12:24;;;;;;;28.17;19.90;;;;;;;4.62;86.00;100540.66;5081600;28;20028;-65
2023/12/08 08:14:50;;;;;;;31.23;21.00;;;;;;;4.62;86.29;100544.22;5074530;28;20059;-63
2023/12/08 08:17:15;;;;;;;33.53;21.33;;;;;;;4.62;86.68;100540.66;5075319;28;20040;-65
2023/12/08 08:19:41;;;;;;;30.33;21.60;;;;;;;4.63;86.12;100547.81;5074786;28;20051;-65
2023/12/08 08:22:07;;;;;;;32.28;20.98;;;;;;;4.64;86.63;100541.28;5068148;28;20107;-64
2023/12/08 08:24:32;;;;;;;34.35;21.77;;;;;;;4.65;87.13;100543.78;5067478;28;20445;-65
2023/12/08 08:26:57;;;;;;;32.90;21.33;;;;;;;4.61;87.33;100544.47;5072319;28;20024;-65
2023/12/08 08:29:23;;;;;;;35.08;22.60;;;;;;;4.63;87.32;100548.66;5076582;28;20757;-65
2023/12/08 08:31:48;;;;;;;35.55;22.50;;;;;;;4.65;87.50;100549.28;5075405;28;20055;-66
2023/12/08 08:34:13;;;;;;;33.45;22.85;;;;;;;4.72;87.54;100545.66;5071376;28;20863;-66
2023/12/08 08:36:39;;;;;;;35.58;22.35;;;;;;;4.72;87.61;100548.41;5079485;28;20096;-67
2023/12/08 08:39:04;;;;;;;40.63;24.48;;;;;;;4.74;87.75;100549.88;5078481;28;20071;-67
2023/12/08 08:41:30;;;;;;;36.75;23.08;;;;;;;4.76;86.90;100555.16;5088146;28;20068;-66
2023/12/08 08:43:56;;;;;;;40.53;24.75;;;;;;;4.77;88.06;100559.59;5076455;28;20044;-66
2023/12/08 08:46:21;;;;;;;39.65;24.90;;;;;;;4.78;88.07;100562.09;5085026;28;20060;-64
2023/12/08 08:48:46;;;;;;;40.30;25.02;;;;;;;4.83;88.21;100580.69;5081996;28;20028;-62
2023/12/08 08:51:14;;;;;;;48.97;27.98;;;;;;;4.83;88.49;100576.00;5071963;28;20517;-62
2023/12/08 08:53:39;;;;;;;42.38;26.10;;;;;;;4.84;87.82;100577.72;5081316;28;20042;-66
2023/12/08 08:56:05;;;;;;;39.38;24.77;;;;;;;4.89;88.48;100579.81;5079050;28;20385;-65
2023/12/08 08:58:32;;;;;;;38.60;26.63;;;;;;;4.93;88.87;100578.28;5081011;28;20036;-66
2023/12/08 09:00:57;;;;;;;43.53;25.67;;;;;;;4.95;88.59;100578.06;5078177;28;20033;-64
2023/12/08 09:03:23;;;;;;;39.33;24.13;;;;;;;4.99;88.64;100577.41;5087496;28;20391;-66
2023/12/08 09:05:48;;;;;;;45.60;27.60;;;;;;;5.02;87.98;100587.09;5081816;28;20121;-64
2023/12/08 09:08:13;;;;;;;42.83;28.60;;;;;;;5.04;88.49;100582.25;5083475;28;20097;-63
2023/12/08 09:10:40;;;;;;;36.85;22.33;;;;;;;5.05;88.98;100583.91;5084406;28;20027;-64
2023/12/08 09:13:05;;;;;;;37.97;21.00;;;;;;;5.06;88.90;100589.19;5080012;28;20039;-64
2023/12/08 09:15:30;;;;;;;38.17;20.38;;;;;;;5.08;90.12;100591.72;5088464;28;20444;-63
2023/12/08 09:17:56;;;;;;;34.70;21.33;;;;;;;5.11;90.04;100588.53;5083130;28;20025;-64
2023/12/08 09:20:23;;;;;;;35.70;19.83;;;;;;;5.11;90.09;100589.38;5082019;28;20384;-60
2023/12/08 09:22:51;;;;;;;36.10;19.48;;;;;;;5.11;90.04;100592.13;5087323;28;20055;-60
2023/12/08 09:25:18;;;;;;;31.58;19.77;;;;;;;5.13;90.33;100600.16;5083929;28;20442;-59
2023/12/08 09:27:43;;;;;;;37.80;21.65;;;;;;;5.16;90.90;100592.28;5075819;28;20380;-60
2023/12/08 09:30:09;;;;;;;33.63;19.85;;;;;;;5.16;90.28;100595.03;5079573;28;20032;-62
2023/12/08 09:32:34;;;;;;;36.00;20.00;;;;;;;5.21;91.06;100588.03;5086355;28;20028;-62
2023/12/08 09:35:00;;;;;;;31.95;19.08;;;;;;;5.24;90.21;100601.34;5089525;28;20040;-62
2023/12/08 09:37:28;;;;;;;36.17;19.75;;;;;;;5.27;90.57;100603.66;5077368;28;20450;-62
2023/12/08 09:39:53;;;;;;;38.55;20.13;;;;;;;5.29;90.26;100607.84;5084242;28;20439;-62
2023/12/08 09:42:32;;;;;;;36.28;21.13;;;;;;;5.32;91.02;100601.06;5081979;28;20108;-61
2023/12/08 09:44:58;;;;;;;42.28;25.13;;;;;;;5.34;91.47;100604.41;5071215;28;20539;-62
2023/12/08 09:47:25;;;;;;;34.00;21.80;;;;;;;5.36;91.43;100613.28;5074807;28;20120;-62
2023/12/08 09:49:52;;;;;;;35.05;24.23;;;;;;;5.37;91.60;100613.06;5085358;28;20099;-62
2023/12/08 09:52:17;;;;;;;33.08;20.05;;;;;;;5.39;91.26;100607.34;5081151;28;20043;-63
2023/12/08 09:54:49;;;;;;;36.20;19.48;;;;;;;5.42;91.58;100606.88;5078799;28;20032;-63
2023/12/08 09:57:16;;;;;;;34.63;19.10;;;;;;;5.46;91.59;100619.13;5072588;28;20036;-63
2023/12/08 09:59:42;;;;;;;32.25;18.67;;;;;;;5.46;91.84;100612.78;5084797;28;20024;-63
2023/12/08 10:02:07;;;;;;;32.08;18.90;;;;;;;5.48;91.55;100617.00;5091328;28;20039;-62
2023/12/08 10:04:34;;;;;;;36.85;19.08;;;;;;;5.52;92.05;100623.72;5091928;28;20037;-62
2023/12/08 10:07:03;;;;;;;33.92;17.98;;;;;;;5.52;93.02;100618.22;5074795;28;20070;-63
2023/12/08 10:09:29;;;;;;;33.97;18.92;;;;;;;5.56;93.25;100611.19;5092102;28;20034;-63
2023/12/08 10:11:55;;;;;;;34.35;19.08;;;;;;;5.56;93.46;100613.13;5080325;28;20035;-63
2023/12/08 10:14:21;;;;;;;36.63;18.63;;;;;;;5.59;93.47;100610.75;5074801;28;20024;-62
2023/12/08 10:16:47;;;;;;;38.53;18.30;;;;;;;5.65;94.30;100611.75;5074941;28;20040;-63
2023/12/08 10:19:12;;;;;;;32.92;17.88;;;;;;;5.67;94.25;100609.63;5082154;28;20025;-63
2023/12/08 10:21:38;;;;;;;36.03;20.45;;;;;;;5.70;94.36;100608.31;5071648;28;20490;-63
2023/12/08 10:24:08;;;;;;;35.72;19.30;;;;;;;5.73;94.51;100613.38;5073663;28;20480;-63
2023/12/08 10:26:33;;;;;;;35.72;19.42;;;;;;;5.74;94.65;100615.03;5083439;28;20043;-63
2023/12/08 10:29:00;;;;;;;33.92;19.13;;;;;;;5.78;95.04;100619.06;5089491;28;20028;-63
2023/12/08 10:31:27;;;;;;;33.42;17.45;;;;;;;5.81;94.51;100616.66;5076372;28;20024;-62
2023/12/08 10:33:53;;;;;;;33.30;18.25;;;;;;;5.82;94.75;100632.16;5080058;28;20036;-62
2023/12/08 10:36:19;;;;;;;39.08;19.70;;;;;;;5.85;94.85;100626.16;5088583;28;20093;-63
2023/12/08 10:38:46;;;;;;;36.13;19.10;;;;;;;5.85;95.11;100628.06;5076731;28;20024;-63
2023/12/08 10:41:12;;;;;;;38.08;17.73;;;;;;;5.88;95.23;100624.88;5078431;28;20029;-63
2023/12/08 10:43:39;;;;;;;41.42;19.88;;;;;;;5.89;95.54;100623.78;5072172;28;20024;-63
2023/12/08 10:46:05;;;;;;;39.28;18.67;;;;;;;5.93;95.51;100633.31;5083212;28;20066;-63
2023/12/08 10:48:35;;;;;;;38.10;19.00;;;;;;;5.95;95.84;100622.09;5082208;28;20024;-63
2023/12/08 10:51:00;;;;;;;32.95;18.13;;;;;;;5.98;95.33;100627.16;5087095;28;20479;-63
2023/12/08 10:53:26;;;;;;;36.83;18.30;;;;;;;6.01;95.33;100618.41;5077290;28;20052;-64
2023/12/08 10:56:12;;;;;;;38.13;19.13;;;;;;;6.01;95.51;100616.50;5082670;28;20096;-62
2023/12/08 10:58:43;;;;;;;41.35;19.00;;;;;;;6.05;95.75;100609.47;5081561;28;20075;-62
2023/12/08 11:01:12;;;;;;;35.25;19.00;;;;;;;6.08;95.76;100610.91;5080186;28;20480;-62
2023/12/08 11:03:40;;;;;;;36.70;18.85;;;;;;;6.11;95.88;100621.47;5081771;28;20032;-61
2023/12/08 11:06:17;;;;;;;40.20;20.25;;;;;;;6.13;95.76;100622.06;5072532;28;20048;-62
2023/12/08 11:08:46;;;;;;;39.63;20.00;;;;;;;6.14;96.39;100621.03;5076754;28;20074;-63
2023/12/08 11:11:13;;;;;;;43.35;18.15;;;;;;;6.17;96.54;100622.47;5079243;28;20531;-64